Time;durP1;ratioP1;P1;durP2;ratioP2;P2;SDS_P1;SDS_P2;PMS_P1;PMS_P2;Temp;Humidity;BMP_temperature;BMP_pressure;BME280_temperature;BME280_humidity;BME280_pressure;Samples;Min_cycle;Max_cycle;Signal;HPM_P1;HPM_P2
2021/12/01 00:00:17;;;;;;;5.30;4.80;;;;;;;2.28;66.08;99295.13;5091020;28;20476;-73
2021/12/01 00:02:44;;;;;;;5.00;4.67;;;;;;;2.16;66.44;99296.31;5092155;28;20515;-72
2021/12/01 00:05:12;;;;;;;4.80;4.50;;;;;;;2.21;66.66;99286.19;5090707;28;21073;-74
2021/12/01 00:07:39;;;;;;;4.73;4.43;;;;;;;2.27;66.17;99276.91;5090714;28;20476;-72
2021/12/01 00:10:09;;;;;;;4.77;4.47;;;;;;;2.38;65.70;99274.09;5092262;28;20429;-73
2021/12/01 00:12:36;;;;;;;4.87;4.57;;;;;;;2.40;66.40;99269.50;5092093;28;20433;-72
2021/12/01 00:15:04;;;;;;;5.30;4.90;;;;;;;2.35;65.44;99275.22;5091908;28;20433;-72
2021/12/01 00:17:30;;;;;;;5.37;4.97;;;;;;;2.26;65.88;99276.13;5091949;28;20465;-72
2021/12/01 00:19:59;;;;;;;4.70;4.30;;;;;;;2.33;65.59;99278.97;5091911;28;20494;-72
2021/12/01 00:22:27;;;;;;;4.67;4.37;;;;;;;2.27;65.63;99271.69;5091935;28;20510;-72
2021/12/01 00:24:54;;;;;;;4.67;4.37;;;;;;;2.19;65.52;99277.69;5091430;28;20524;-72
2021/12/01 00:27:21;;;;;;;4.63;4.33;;;;;;;2.14;66.09;99277.31;5092356;28;20505;-72
2021/12/01 00:29:49;;;;;;;5.17;4.60;;;;;;;2.15;66.14;99288.59;5091804;28;20880;-72
2021/12/01 00:32:16;;;;;;;5.03;4.63;;;;;;;2.23;66.27;99293.91;5091748;28;20452;-72
2021/12/01 00:34:43;;;;;;;4.57;4.17;;;;;;;2.26;65.72;99283.16;5091748;28;20495;-72
2021/12/01 00:37:10;;;;;;;4.80;4.50;;;;;;;2.12;66.59;99289.72;5091443;28;20472;-72
2021/12/01 00:39:38;;;;;;;4.80;4.60;;;;;;;2.16;66.97;99290.25;5092024;28;20469;-72
2021/12/01 00:42:06;;;;;;;3.97;3.67;;;;;;;2.28;66.34;99287.25;5091809;28;20520;-72
2021/12/01 00:44:34;;;;;;;4.87;4.10;;;;;;;2.40;65.43;99286.06;5092209;28;20433;-72
2021/12/01 00:47:05;;;;;;;4.40;4.20;;;;;;;2.53;65.86;99283.88;5091252;28;20481;-72
2021/12/01 00:49:35;;;;;;;4.67;4.47;;;;;;;2.57;65.19;99282.63;5091937;28;20437;-72
2021/12/01 00:52:03;;;;;;;5.07;4.57;;;;;;;2.61;64.70;99281.34;5094928;28;20969;-72
2021/12/01 00:54:30;;;;;;;5.13;4.83;;;;;;;2.52;64.64;99277.00;5095973;28;20480;-72
2021/12/01 00:56:58;;;;;;;4.37;4.17;;;;;;;2.41;65.22;99269.38;5094784;28;20541;-72
2021/12/01 00:59:25;;;;;;;4.20;4.00;;;;;;;2.30;65.24;99274.00;5094717;28;20979;-72
2021/12/01 01:01:52;;;;;;;4.70;4.23;;;;;;;2.29;65.96;99270.56;5095109;28;20818;-72
2021/12/01 01:04:18;;;;;;;4.43;4.03;;;;;;;2.34;64.85;99267.50;5094961;28;20980;-71
2021/12/01 01:06:45;;;;;;;4.60;4.30;;;;;;;2.40;64.96;99267.72;5094885;28;20476;-73
2021/12/01 01:09:12;;;;;;;4.60;4.30;;;;;;;2.44;65.04;99258.59;5095670;28;20469;-73
2021/12/01 01:17:18;;;;;;;4.80;4.50;;;;;;;2.99;63.04;99265.22;5094877;28;20405;-73
2021/12/01 01:19:45;;;;;;;4.37;4.17;;;;;;;3.06;63.38;99271.53;5095545;28;20494;-73
2021/12/01 01:22:11;;;;;;;5.13;4.73;;;;;;;3.07;63.92;99262.66;5094635;28;20437;-73
2021/12/01 01:24:38;;;;;;;4.63;4.23;;;;;;;3.05;63.67;99246.28;5094690;28;20871;-73
2021/12/01 01:27:05;;;;;;;5.63;5.10;;;;;;;3.18;62.87;99228.31;5094337;28;21066;-73
2021/12/01 01:29:36;;;;;;;4.43;4.13;;;;;;;3.26;63.29;99238.84;5094724;28;20891;-72
2021/12/01 01:32:04;;;;;;;4.67;4.37;;;;;;;3.22;62.87;99229.63;5094266;28;20433;-73
2021/12/01 01:34:31;;;;;;;4.70;4.40;;;;;;;3.18;63.39;99207.31;5094472;28;20528;-73
2021/12/01 01:36:58;;;;;;;4.70;4.40;;;;;;;3.25;62.37;99208.34;5095202;28;20433;-73
2021/12/01 01:39:24;;;;;;;5.50;5.10;;;;;;;3.30;62.12;99205.22;5094314;28;20514;-72
2021/12/01 01:41:52;;;;;;;5.77;5.47;;;;;;;3.32;62.58;99187.53;5094566;28;20477;-74
2021/12/01 01:44:19;;;;;;;5.30;4.97;;;;;;;3.36;62.43;99189.69;5094263;28;20448;-74
2021/12/01 01:46:47;;;;;;;5.70;4.83;;;;;;;3.40;62.55;99196.28;5094127;28;20512;-73
2021/12/01 01:49:18;;;;;;;4.87;4.57;;;;;;;3.41;62.77;99197.91;5093782;28;20543;-73
2021/12/01 01:51:45;;;;;;;5.57;4.93;;;;;;;3.41;62.16;99205.78;5094629;28;20187;-73
2021/12/01 01:54:12;;;;;;;5.20;4.90;;;;;;;3.42;62.36;99203.97;5094832;28;20472;-73
2021/12/01 01:56:40;;;;;;;5.10;4.80;;;;;;;3.39;63.25;99205.13;5094001;28;20445;-73
2021/12/01 01:59:07;;;;;;;5.37;4.97;;;;;;;3.39;63.49;99201.69;5093907;28;20187;-73
2021/12/01 02:01:44;;;;;;;5.43;5.13;;;;;;;3.39;62.93;99194.63;5093486;28;20227;-73
2021/12/01 02:04:12;;;;;;;5.60;5.13;;;;;;;3.36;62.65;99191.50;5094760;28;20429;-72
2021/12/01 02:06:39;;;;;;;6.03;5.50;;;;;;;3.32;63.49;99183.13;5094024;28;20516;-72
2021/12/01 02:09:08;;;;;;;6.53;5.87;;;;;;;3.28;63.80;99187.03;5093408;28;20528;-73
2021/12/01 02:11:35;;;;;;;6.23;5.63;;;;;;;3.24;64.24;99190.97;5093351;28;20960;-73
2021/12/01 02:14:02;;;;;;;5.97;5.40;;;;;;;3.16;64.31;99177.81;5094400;28;20437;-71
2021/12/01 02:16:29;;;;;;;7.33;5.80;;;;;;;3.14;63.92;99185.00;5093281;28;20894;-71
2021/12/01 02:18:56;;;;;;;5.83;5.40;;;;;;;3.06;64.17;99192.81;5093562;28;20488;-70
2021/12/01 02:21:27;;;;;;;6.17;5.83;;;;;;;2.92;65.43;99211.78;5093354;28;20476;-70
2021/12/01 02:23:56;;;;;;;5.97;5.40;;;;;;;2.78;66.13;99204.44;5093199;28;20982;-70
2021/12/01 02:26:24;;;;;;;7.97;6.23;;;;;;;2.79;66.88;99208.75;5093270;28;20517;-70
2021/12/01 02:28:54;;;;;;;7.73;6.20;;;;;;;2.75;66.87;99217.88;5093463;28;20441;-70
2021/12/01 02:31:22;;;;;;;6.87;5.97;;;;;;;2.63;67.44;99210.41;5093345;28;20477;-70
2021/12/01 02:33:49;;;;;;;6.63;6.13;;;;;;;2.50;66.85;99205.59;5093327;28;20436;-70
2021/12/01 02:36:16;;;;;;;6.83;6.23;;;;;;;2.49;67.01;99209.16;5093422;28;20445;-71
2021/12/01 02:38:46;;;;;;;7.30;6.70;;;;;;;2.46;68.46;99209.47;5093466;28;20468;-70
2021/12/01 02:41:14;;;;;;;7.93;7.23;;;;;;;2.49;68.07;99197.88;5093958;28;20474;-70
2021/12/01 02:43:43;;;;;;;6.93;6.23;;;;;;;2.45;68.40;99196.53;5093906;28;20477;-70
2021/12/01 02:46:10;;;;;;;7.03;6.47;;;;;;;2.38;68.40;99196.31;5092937;28;20556;-71
2021/12/01 02:48:41;;;;;;;6.63;5.90;;;;;;;2.36;68.63;99205.28;5093027;28;20437;-73
2021/12/01 02:51:09;;;;;;;6.47;5.97;;;;;;;2.20;68.47;99187.63;5093853;28;20433;-73
2021/12/01 02:53:36;;;;;;;11.90;8.00;;;;;;;2.18;70.06;99196.59;5093085;28;20506;-73
2021/12/01 02:56:05;;;;;;;13.10;9.33;;;;;;;2.13;69.81;99217.19;5093398;28;20480;-73
2021/12/01 02:58:38;;;;;;;12.77;8.70;;;;;;;2.07;69.93;99207.31;5092683;28;20473;-73
2021/12/01 03:01:08;;;;;;;8.37;7.50;;;;;;;2.10;70.05;99196.53;5093908;28;20436;-72
2021/12/01 03:03:36;;;;;;;5.83;5.40;;;;;;;2.06;67.83;99205.66;5093360;28;20444;-71
2021/12/01 03:06:04;;;;;;;5.20;4.70;;;;;;;2.00;66.18;99206.28;5092626;28;20429;-72
2021/12/01 03:08:30;;;;;;;4.47;4.03;;;;;;;2.08;64.37;99215.03;5092455;28;20456;-71
2021/12/01 03:10:57;;;;;;;4.57;4.03;;;;;;;2.06;63.62;99216.97;5092930;28;20577;-72
2021/12/01 03:13:28;;;;;;;3.40;3.30;;;;;;;2.11;62.96;99219.97;5092412;28;20437;-72
2021/12/01 03:15:55;;;;;;;4.20;3.90;;;;;;;2.32;63.18;99227.53;5092242;28;20883;-72
2021/12/01 03:18:23;;;;;;;4.47;4.17;;;;;;;2.30;62.70;99216.38;5092529;28;20437;-72
2021/12/01 03:20:51;;;;;;;4.33;4.13;;;;;;;2.30;62.69;99208.50;5092281;28;20433;-72
2021/12/01 03:23:18;;;;;;;4.60;4.20;;;;;;;2.46;63.29;99200.78;5092467;28;20429;-72
2021/12/01 03:25:45;;;;;;;3.93;3.73;;;;;;;2.52;62.74;99198.38;5092200;28;20524;-72
2021/12/01 03:28:12;;;;;;;5.43;3.63;;;;;;;2.47;62.26;99199.81;5092669;28;20505;-72
2021/12/01 03:30:41;;;;;;;5.20;4.10;;;;;;;2.61;62.19;99192.22;5092126;28;21020;-72
2021/12/01 03:33:10;;;;;;;4.27;3.83;;;;;;;2.79;62.22;99192.16;5092384;28;20433;-72
2021/12/01 03:35:39;;;;;;;3.67;3.47;;;;;;;2.80;61.57;99206.91;5092053;28;20480;-71
2021/12/01 03:38:06;;;;;;;3.93;3.73;;;;;;;2.78;61.44;99209.69;5093235;28;20469;-72
2021/12/01 03:40:34;;;;;;;6.33;4.83;;;;;;;2.73;61.81;99222.44;5092017;28;20483;-73
2021/12/01 03:43:01;;;;;;;4.90;4.60;;;;;;;2.78;61.61;99217.56;5091963;28;20879;-73
2021/12/01 03:45:28;;;;;;;4.10;3.90;;;;;;;2.98;61.72;99211.13;5093057;28;20468;-73
2021/12/01 03:47:56;;;;;;;6.60;4.60;;;;;;;3.09;61.03;99207.41;5091826;28;20526;-73
2021/12/01 03:50:23;;;;;;;8.07;4.40;;;;;;;3.18;60.61;99212.56;5092242;28;20534;-72
2021/12/01 03:52:50;;;;;;;4.80;4.33;;;;;;;3.08;60.35;99221.53;5092041;28;20437;-73
2021/12/01 03:55:17;;;;;;;4.10;3.90;;;;;;;3.27;60.62;99222.13;5092106;28;20843;-73
2021/12/01 03:57:44;;;;;;;4.47;4.17;;;;;;;3.37;61.18;99220.22;5091823;28;20286;-73
2021/12/01 04:00:13;;;;;;;4.70;4.30;;;;;;;3.51;61.46;99227.47;5092053;28;20433;-73
2021/12/01 04:02:41;;;;;;;6.60;5.07;;;;;;;3.62;61.26;99227.19;5092243;28;20612;-73
2021/12/01 04:05:10;;;;;;;7.03;6.13;;;;;;;3.66;59.67;99231.16;5092307;28;20191;-73
2021/12/01 04:07:38;;;;;;;4.10;3.80;;;;;;;3.38;59.34;99232.34;5091671;28;20511;-73
2021/12/01 04:10:07;;;;;;;4.50;4.10;;;;;;;3.51;59.42;99242.44;5091983;28;20465;-73
2021/12/01 04:12:35;;;;;;;5.53;5.13;;;;;;;3.55;58.80;99231.44;5091998;28;20234;-73
2021/12/01 04:15:04;;;;;;;4.90;4.50;;;;;;;3.53;58.61;99232.56;5091646;28;20566;-73
2021/12/01 04:17:31;;;;;;;4.20;4.00;;;;;;;3.59;59.67;99235.38;5091883;28;20436;-73
2021/12/01 04:19:57;;;;;;;4.53;4.17;;;;;;;3.70;59.93;99237.72;5091585;28;20476;-73
2021/12/01 04:22:25;;;;;;;4.73;4.43;;;;;;;3.82;60.26;99241.72;5092675;28;20473;-73
2021/12/01 04:24:52;;;;;;;7.20;5.27;;;;;;;3.83;60.30;99239.91;5092407;28;20227;-74
2021/12/01 04:27:19;;;;;;;5.43;4.83;;;;;;;3.82;60.50;99244.34;5095986;28;20207;-72
2021/12/01 04:29:46;;;;;;;6.30;5.53;;;;;;;3.84;60.00;99237.13;5095744;28;20199;-72
2021/12/01 04:32:13;;;;;;;5.73;5.00;;;;;;;3.82;60.88;99241.72;5095720;28;20222;-72
2021/12/01 04:34:39;;;;;;;6.50;5.90;;;;;;;3.89;61.09;99247.97;5095920;28;20238;-72
2021/12/01 04:37:07;;;;;;;6.03;5.27;;;;;;;3.84;61.56;99231.84;5095207;28;20230;-73
2021/12/01 04:39:35;;;;;;;6.07;5.63;;;;;;;3.87;61.75;99225.47;5095373;28;20271;-73
2021/12/01 04:42:05;;;;;;;7.53;6.10;;;;;;;3.85;60.78;99233.50;5095455;28;20248;-72
2021/12/01 04:44:34;;;;;;;6.60;5.57;;;;;;;3.84;60.88;99221.34;5095441;28;20433;-72
2021/12/01 04:47:02;;;;;;;4.73;4.43;;;;;;;3.79;61.24;99220.19;5094974;28;20603;-75
2021/12/01 04:49:34;;;;;;;6.33;4.73;;;;;;;3.72;62.14;99214.75;5095296;28;20195;-75
2021/12/01 04:52:02;;;;;;;7.40;6.60;;;;;;;3.73;62.26;99221.66;5095334;28;20187;-75
2021/12/01 04:54:29;;;;;;;7.20;6.43;;;;;;;3.72;61.98;99217.38;5095207;28;20469;-73
2021/12/01 04:56:58;;;;;;;9.87;6.10;;;;;;;3.63;61.58;99192.06;5095133;28;20258;-73
2021/12/01 04:59:25;;;;;;;6.67;5.30;;;;;;;3.64;61.75;99214.72;5094778;28;20465;-74
2021/12/01 05:01:54;;;;;;;8.23;5.73;;;;;;;3.55;61.24;99192.06;5095232;28;20815;-74
2021/12/01 05:04:22;;;;;;;7.00;6.23;;;;;;;3.56;61.82;99229.63;5094554;28;20249;-73
2021/12/01 05:06:49;;;;;;;6.23;5.67;;;;;;;3.59;61.90;99227.50;5094519;28;20676;-73
2021/12/01 05:09:15;;;;;;;9.00;6.20;;;;;;;3.75;61.49;99226.72;5095224;28;20222;-76
2021/12/01 05:11:42;;;;;;;12.50;5.20;;;;;;;3.87;61.44;99231.53;5094590;28;20629;-77
2021/12/01 05:14:11;;;;;;;14.20;8.60;;;;;;;3.90;60.85;99225.16;5094832;28;20526;-74
2021/12/01 05:16:39;;;;;;;15.30;7.47;;;;;;;3.97;61.39;99226.16;5094763;28;20226;-74
2021/12/01 05:19:06;;;;;;;7.30;6.77;;;;;;;4.01;62.17;99248.50;5094630;28;20195;-73
2021/12/01 05:21:33;;;;;;;16.97;7.17;;;;;;;3.94;61.69;99221.22;5094492;28;20667;-73
2021/12/01 05:24:01;;;;;;;10.67;6.60;;;;;;;4.04;63.02;99238.47;5094603;28;20222;-70
2021/12/01 05:26:28;;;;;;;7.40;6.90;;;;;;;4.09;62.75;99230.94;5095064;28;20629;-71
2021/12/01 05:28:54;;;;;;;8.97;7.30;;;;;;;4.11;62.29;99234.25;5092313;28;20258;-72
2021/12/01 05:31:22;;;;;;;8.97;8.07;;;;;;;4.08;62.06;99237.19;5092285;28;20679;-74
2021/12/01 05:33:49;;;;;;;9.50;8.20;;;;;;;3.89;62.43;99232.19;5093381;28;20227;-76
2021/12/01 05:36:16;;;;;;;13.30;8.20;;;;;;;3.85;62.36;99238.75;5093762;28;20720;-77
2021/12/01 05:38:43;;;;;;;11.97;7.03;;;;;;;3.80;62.81;99230.53;5094021;28;20456;-75
2021/12/01 05:41:10;;;;;;;19.30;6.83;;;;;;;3.85;62.31;99228.25;5094107;28;20281;-75
2021/12/01 05:43:37;;;;;;;7.90;6.40;;;;;;;3.93;61.64;99230.91;5093853;28;20231;-76
2021/12/01 05:46:03;;;;;;;8.07;5.23;;;;;;;4.00;61.96;99229.28;5093707;28;20226;-76
2021/12/01 05:48:32;;;;;;;7.37;5.03;;;;;;;3.95;61.40;99223.69;5093776;28;20229;-75
2021/12/01 05:50:59;;;;;;;4.57;4.27;;;;;;;3.76;60.14;99237.09;5093471;28;20693;-76
2021/12/01 05:53:25;;;;;;;6.47;5.60;;;;;;;3.62;60.58;99244.75;5093401;28;20234;-76
2021/12/01 05:55:52;;;;;;;4.97;4.60;;;;;;;3.70;59.94;99235.13;5093591;28;20195;-76
2021/12/01 05:58:19;;;;;;;36.30;16.37;;;;;;;3.61;60.70;99238.69;5093811;28;20234;-76
2021/12/01 06:00:46;;;;;;;27.57;16.37;;;;;;;3.66;60.71;99253.97;5093514;28;20222;-75
2021/12/01 06:03:12;;;;;;;30.07;15.10;;;;;;;3.90;60.46;99267.19;5094061;28;20528;-75
2021/12/01 06:05:43;;;;;;;42.87;17.33;;;;;;;4.20;60.20;99254.28;5094106;28;20643;-76
2021/12/01 06:08:10;;;;;;;23.87;13.57;;;;;;;4.47;60.22;99266.31;5093600;28;21007;-75
2021/12/01 06:10:38;;;;;;;42.83;15.57;;;;;;;4.86;62.04;99252.34;5089454;28;20195;-76
2021/12/01 06:13:05;;;;;;;25.43;9.80;;;;;;;5.14;60.52;99256.25;5074294;28;20265;-78
2021/12/01 06:15:32;;;;;;;20.00;8.43;;;;;;;5.25;57.18;99271.72;5073324;28;20192;-76
2021/12/01 06:17:59;;;;;;;13.50;9.47;;;;;;;5.30;57.12;99260.66;5072917;28;20257;-78
2021/12/01 06:20:26;;;;;;;11.57;6.57;;;;;;;5.37;54.60;99280.91;5072852;28;20231;-76
2021/12/01 06:22:54;;;;;;;7.77;5.57;;;;;;;5.46;54.00;99285.16;5072854;28;20195;-78
2021/12/01 06:25:21;;;;;;;21.50;6.07;;;;;;;5.66;53.81;99299.59;5073090;28;20263;-77
2021/12/01 06:27:48;;;;;;;5.97;5.47;;;;;;;5.85;52.69;99300.22;5072965;28;20255;-77
2021/12/01 06:30:15;;;;;;;12.53;5.63;;;;;;;5.99;52.00;99312.66;5073170;28;20196;-77
2021/12/01 06:32:42;;;;;;;10.20;5.43;;;;;;;6.20;51.42;99302.38;5072564;28;20278;-78
2021/12/01 06:35:09;;;;;;;6.90;5.23;;;;;;;6.70;50.61;99315.91;5086843;28;20231;-78
2021/12/01 06:37:35;;;;;;;3.80;3.50;;;;;;;7.07;48.13;99315.94;5075353;28;20206;-76
2021/12/01 06:40:05;;;;;;;10.47;3.97;;;;;;;7.32;45.60;99323.47;5072438;28;20223;-78
2021/12/01 06:42:31;;;;;;;8.50;3.30;;;;;;;7.45;45.27;99328.13;5092266;28;20752;-77
2021/12/01 06:44:58;;;;;;;4.13;3.83;;;;;;;7.72;45.14;99324.88;5093519;28;20226;-76
2021/12/01 06:47:25;;;;;;;5.63;3.57;;;;;;;8.02;44.00;99347.66;5091915;28;20670;-78
2021/12/01 06:49:51;;;;;;;3.70;3.50;;;;;;;7.93;42.87;99333.72;5080584;28;20219;-78
2021/12/01 06:52:18;;;;;;;3.70;3.40;;;;;;;8.34;43.35;99342.00;5072655;28;20226;-77
2021/12/01 06:54:45;;;;;;;3.40;3.10;;;;;;;8.40;42.06;99343.91;5072591;28;20229;-74
2021/12/01 06:57:13;;;;;;;4.23;3.93;;;;;;;8.66;41.25;99337.06;5072189;28;20231;-74
2021/12/01 06:59:40;;;;;;;9.20;4.47;;;;;;;8.79;41.16;99336.41;5072579;28;20191;-74
2021/12/01 07:02:06;;;;;;;16.37;5.17;;;;;;;9.02;40.92;99347.63;5072374;28;20235;-74
2021/12/01 07:04:33;;;;;;;5.70;5.20;;;;;;;9.24;40.26;99350.06;5069388;28;20232;-74
2021/12/01 07:07:00;;;;;;;5.80;5.30;;;;;;;9.28;41.06;99353.19;5079996;28;20227;-74
2021/12/01 07:09:27;;;;;;;10.13;4.20;;;;;;;9.55;40.11;99360.31;5082779;28;20227;-74
2021/12/01 07:11:54;;;;;;;4.33;3.93;;;;;;;9.61;39.40;99359.56;5088270;28;20555;-74
2021/12/01 07:14:22;;;;;;;9.10;5.77;;;;;;;9.40;40.53;99352.44;5096915;28;20229;-73
2021/12/01 07:16:49;;;;;;;16.53;5.10;;;;;;;9.13;40.14;99357.72;5098969;28;20203;-75
2021/12/01 07:19:16;;;;;;;3.70;3.50;;;;;;;8.53;41.99;99346.72;5082131;28;20229;-76
2021/12/01 07:21:43;;;;;;;4.33;4.03;;;;;;;8.34;43.48;99344.66;5088884;28;20635;-76
2021/12/01 07:24:10;;;;;;;8.23;4.53;;;;;;;8.07;43.60;99340.00;5108880;28;20230;-74
2021/12/01 07:26:36;;;;;;;7.00;6.20;;;;;;;7.82;43.83;99322.78;5112874;28;20218;-75
2021/12/01 07:29:07;;;;;;;5.17;4.87;;;;;;;7.69;45.25;99330.53;5112801;28;20267;-76
2021/12/01 07:31:35;;;;;;;3.93;3.63;;;;;;;7.72;44.53;99324.88;5094240;28;20199;-75
2021/12/01 07:34:02;;;;;;;3.40;3.30;;;;;;;7.69;44.47;99325.25;5072218;28;20191;-71
2021/12/01 07:36:29;;;;;;;6.00;5.40;;;;;;;7.56;44.71;99331.13;5072344;28;20231;-77
2021/12/01 07:38:57;;;;;;;7.40;6.80;;;;;;;7.46;44.92;99329.75;5086101;28;20675;-77
2021/12/01 07:41:24;;;;;;;9.93;4.50;;;;;;;7.87;44.61;99328.31;5071937;28;20221;-74
2021/12/01 07:43:50;;;;;;;33.70;10.07;;;;;;;8.39;44.12;99323.75;5078693;28;20278;-73
2021/12/01 07:46:17;;;;;;;14.60;9.53;;;;;;;8.49;43.80;99326.94;5092115;28;20670;-71
2021/12/01 07:48:45;;;;;;;6.13;5.43;;;;;;;8.69;42.10;99331.41;5091944;28;20254;-71
2021/12/01 07:51:12;;;;;;;4.83;4.40;;;;;;;8.72;41.74;99331.03;5091613;28;20311;-71
2021/12/01 07:53:39;;;;;;;7.60;5.57;;;;;;;8.91;42.11;99324.31;5091725;28;20601;-72
2021/12/01 07:56:06;;;;;;;5.73;5.00;;;;;;;9.07;41.85;99324.84;5091849;28;20286;-72
2021/12/01 07:58:33;;;;;;;3.70;3.40;;;;;;;9.61;40.73;99333.84;5091654;28;20231;-72
2021/12/01 08:01:00;;;;;;;3.73;3.43;;;;;;;9.93;39.69;99337.75;5095785;28;20230;-72
2021/12/01 08:03:26;;;;;;;4.87;4.43;;;;;;;10.19;39.21;99327.28;5095354;28;20231;-73
2021/12/01 08:05:54;;;;;;;14.80;5.00;;;;;;;10.42;39.24;99333.09;5099123;28;20226;-72
2021/12/01 08:08:21;;;;;;;19.83;4.60;;;;;;;10.80;38.23;99339.53;5090248;28;20254;-71
2021/12/01 08:10:48;;;;;;;8.03;3.47;;;;;;;10.94;37.43;99333.22;5088756;28;20235;-72
2021/12/01 08:13:15;;;;;;;5.03;3.47;;;;;;;10.96;37.28;99323.22;5089168;28;20268;-70
2021/12/01 08:15:41;;;;;;;4.83;3.70;;;;;;;11.13;36.91;99326.28;5082862;28;20223;-70
2021/12/01 08:18:08;;;;;;;9.13;8.20;;;;;;;10.75;37.78;99304.81;5096180;28;20228;-70
2021/12/01 08:20:36;;;;;;;8.70;7.80;;;;;;;10.57;38.24;99305.38;5095618;28;20222;-70
2021/12/01 08:23:05;;;;;;;6.80;4.57;;;;;;;10.73;38.20;99302.34;5095758;28;20196;-70
2021/12/01 08:25:31;;;;;;;7.80;4.47;;;;;;;10.50;37.77;99314.34;5095490;28;20228;-70
2021/12/01 08:28:00;;;;;;;3.57;3.37;;;;;;;10.36;38.91;99296.72;5103316;28;20258;-71
2021/12/01 08:30:27;;;;;;;3.80;3.13;;;;;;;10.73;38.22;99299.69;5115523;28;20278;-72
2021/12/01 08:32:54;;;;;;;4.93;3.70;;;;;;;11.09;37.62;99294.00;5084126;28;20224;-71
2021/12/01 08:35:21;;;;;;;10.47;3.40;;;;;;;11.51;37.24;99298.88;5092654;28;20196;-70
2021/12/01 08:37:48;;;;;;;3.87;3.10;;;;;;;11.46;36.40;99305.84;5075533;28;20194;-70
2021/12/01 08:40:18;;;;;;;5.00;4.00;;;;;;;11.13;37.53;99305.03;5077370;28;20221;-70
2021/12/01 08:42:45;;;;;;;4.60;4.00;;;;;;;11.07;37.79;99308.50;5075034;28;20181;-70
2021/12/01 08:45:12;;;;;;;5.83;3.60;;;;;;;11.06;37.50;99309.53;5074951;28;20325;-70
2021/12/01 08:47:39;;;;;;;2.83;2.63;;;;;;;11.05;37.78;99316.69;5074723;28;20671;-71
2021/12/01 08:50:07;;;;;;;3.03;2.53;;;;;;;11.43;37.59;99317.72;5074626;28;20257;-70
2021/12/01 08:52:34;;;;;;;5.43;3.43;;;;;;;11.40;37.17;99318.13;5074804;28;20196;-70
2021/12/01 08:55:01;;;;;;;16.23;9.23;;;;;;;11.31;37.36;99319.34;5074670;28;20263;-70
2021/12/01 08:57:29;;;;;;;4.07;3.67;;;;;;;11.20;37.43;99309.34;5074825;28;20274;-69
2021/12/01 08:59:56;;;;;;;6.10;5.37;;;;;;;11.27;37.98;99315.47;5074427;28;20233;-68
2021/12/01 09:02:22;;;;;;;8.80;5.77;;;;;;;11.25;37.80;99312.19;5074469;28;20225;-68
2021/12/01 09:04:50;;;;;;;13.80;7.80;;;;;;;11.32;37.72;99310.38;5074519;28;20229;-69
2021/12/01 09:07:17;;;;;;;7.93;5.87;;;;;;;11.27;37.51;99299.50;5091296;28;20381;-68
2021/12/01 09:09:44;;;;;;;5.47;4.73;;;;;;;11.23;38.18;99290.31;5094678;28;20307;-70
2021/12/01 09:12:12;;;;;;;3.83;3.53;;;;;;;11.48;37.86;99301.16;5093536;28;20250;-69
2021/12/01 09:14:40;;;;;;;6.50;3.37;;;;;;;11.66;37.20;99288.88;5076478;28;20289;-69
2021/12/01 09:17:09;;;;;;;6.37;5.00;;;;;;;12.06;37.18;99287.75;5074101;28;20197;-69
2021/12/01 09:19:36;;;;;;;7.63;4.47;;;;;;;12.12;37.36;99276.25;5090736;28;20205;-69
2021/12/01 09:22:03;;;;;;;3.57;3.37;;;;;;;12.27;37.55;99284.78;5094468;28;20225;-69
2021/12/01 09:24:30;;;;;;;5.33;4.93;;;;;;;12.44;37.21;99275.28;5093625;28;20280;-72
2021/12/01 09:26:57;;;;;;;3.60;3.30;;;;;;;12.72;37.44;99275.72;5093145;28;20273;-71
2021/12/01 09:29:27;;;;;;;2.50;2.40;;;;;;;13.23;36.28;99292.38;5092716;28;20698;-70
2021/12/01 09:31:55;;;;;;;2.93;2.50;;;;;;;13.58;36.16;99285.53;5093804;28;20191;-68
2021/12/01 09:34:22;;;;;;;3.30;2.40;;;;;;;13.45;36.31;99263.47;5074846;28;20660;-68
2021/12/01 09:36:48;;;;;;;2.37;2.23;;;;;;;13.54;35.66;99254.97;5073671;28;20673;-68
2021/12/01 09:39:15;;;;;;;6.70;2.33;;;;;;;13.55;35.55;99253.94;5073890;28;20279;-70
2021/12/01 09:41:42;;;;;;;4.67;2.57;;;;;;;13.42;36.30;99248.72;5090970;28;20226;-67
2021/12/01 09:44:09;;;;;;;2.90;2.70;;;;;;;13.23;36.82;99240.91;5094167;28;20258;-65
2021/12/01 09:46:36;;;;;;;11.17;3.80;;;;;;;13.32;37.02;99236.94;5093805;28;20231;-69
2021/12/01 09:49:04;;;;;;;9.83;4.13;;;;;;;13.49;36.64;99222.81;5093935;28;20276;-69
2021/12/01 09:51:31;;;;;;;3.47;3.23;;;;;;;13.50;36.97;99227.09;5092283;28;20230;-69
2021/12/01 09:54:00;;;;;;;4.00;3.60;;;;;;;13.39;36.36;99227.03;5089268;28;20213;-69
2021/12/01 09:56:27;;;;;;;2.50;2.30;;;;;;;13.20;36.52;99218.16;5094033;28;20199;-68
2021/12/01 09:58:54;;;;;;;3.63;2.80;;;;;;;13.07;36.78;99204.94;5094171;28;20198;-68
2021/12/01 10:01:23;;;;;;;8.47;2.60;;;;;;;13.03;36.76;99201.06;5093635;28;20230;-69
2021/12/01 10:03:50;;;;;;;15.23;4.27;;;;;;;12.62;36.90;99198.09;5089814;28;20691;-71
2021/12/01 10:06:20;;;;;;;3.27;3.00;;;;;;;12.44;37.69;99206.00;5069334;28;20230;-70
2021/12/01 10:08:50;;;;;;;19.87;3.60;;;;;;;12.37;38.14;99199.91;5072529;28;20268;-70
2021/12/01 10:11:18;;;;;;;2.87;2.23;;;;;;;12.49;38.31;99200.84;5072689;28;20201;-69
2021/12/01 10:13:49;;;;;;;7.53;2.60;;;;;;;12.47;38.49;99200.25;5072670;28;20225;-72
2021/12/01 10:16:17;;;;;;;3.57;2.67;;;;;;;12.42;38.79;99192.06;5072985;28;20240;-69
2021/12/01 10:18:46;;;;;;;2.50;2.30;;;;;;;12.09;38.83;99195.97;5080431;28;20225;-69
2021/12/01 10:21:14;;;;;;;2.53;2.40;;;;;;;12.10;39.39;99195.78;5092994;28;20661;-69
2021/12/01 10:23:47;;;;;;;9.63;3.27;;;;;;;12.05;39.61;99200.09;5092264;28;20258;-68
2021/12/01 10:26:18;;;;;;;14.23;5.23;;;;;;;11.97;39.83;99203.00;5091339;28;20229;-69
2021/12/01 10:28:47;;;;;;;4.53;3.67;;;;;;;11.95;40.13;99194.41;5092876;28;20210;-64
2021/12/01 10:31:29;;;;;;;8.93;7.63;;;;;;;12.15;44.32;99187.97;5093186;28;20303;-62
2021/12/01 10:33:56;;;;;;;8.00;5.63;;;;;;;12.16;42.67;99181.59;5077352;28;20728;-63
2021/12/01 10:36:26;;;;;;;4.27;3.80;;;;;;;12.19;40.68;99191.00;5072991;28;20240;-69
2021/12/01 10:39:06;;;;;;;3.23;3.03;;;;;;;12.04;40.40;99182.50;5072599;28;20229;-71
2021/12/01 10:41:36;;;;;;;6.43;3.10;;;;;;;11.91;40.41;99182.53;5078985;28;20667;-71
2021/12/01 10:44:10;;;;;;;5.83;5.33;;;;;;;11.99;40.76;99183.13;5092796;28;20192;-69
2021/12/01 10:46:44;;;;;;;3.73;3.43;;;;;;;12.03;40.46;99186.16;5092502;28;20185;-69
2021/12/01 10:49:11;;;;;;;4.17;3.47;;;;;;;12.31;41.04;99187.47;5092891;28;20246;-69
2021/12/01 10:51:40;;;;;;;7.20;4.90;;;;;;;12.63;41.72;99194.41;5092659;28;20247;-66
2021/12/01 10:54:17;;;;;;;5.00;4.00;;;;;;;13.21;42.03;99195.78;5093078;28;20225;-67
2021/12/01 10:56:45;;;;;;;38.50;6.03;;;;;;;13.80;46.18;99179.94;5092241;28;20222;-67
2021/12/01 10:59:13;;;;;;;20.50;3.63;;;;;;;13.87;39.08;99190.53;5092503;28;20247;-69
2021/12/01 11:01:40;;;;;;;4.63;3.70;;;;;;;13.97;37.88;99194.31;5092661;28;20223;-69
2021/12/01 11:04:07;;;;;;;6.60;2.90;;;;;;;13.75;37.97;99189.66;5092677;28;20223;-68
2021/12/01 11:06:40;;;;;;;2.23;2.13;;;;;;;13.66;38.13;99180.31;5092199;28;20612;-68
2021/12/01 11:09:07;;;;;;;2.60;2.40;;;;;;;13.47;38.49;99176.00;5092878;28;20293;-68
2021/12/01 11:11:42;;;;;;;10.93;2.83;;;;;;;13.34;38.55;99176.97;5092185;28;20195;-68
2021/12/01 11:14:11;;;;;;;4.00;3.60;;;;;;;13.63;38.81;99175.41;5092702;28;20280;-68
2021/12/01 11:16:39;;;;;;;3.80;2.57;;;;;;;13.60;38.31;99170.56;5092000;28;20282;-69
2021/12/01 11:19:06;;;;;;;3.57;2.07;;;;;;;13.59;38.71;99172.38;5089060;28;20234;-67
2021/12/01 11:21:33;;;;;;;6.93;2.90;;;;;;;13.74;44.31;99178.19;5089194;28;20199;-63
2021/12/01 11:24:01;;;;;;;20.00;3.43;;;;;;;14.18;44.74;99179.66;5092615;28;20226;-60
2021/12/01 11:26:30;;;;;;;7.37;2.80;;;;;;;14.67;39.75;99182.84;5092409;28;20278;-63
2021/12/01 11:29:00;;;;;;;5.17;2.50;;;;;;;14.91;37.04;99186.38;5091953;28;20310;-67
2021/12/01 11:31:32;;;;;;;13.77;11.00;;;;;;;14.42;37.44;99181.41;5092326;28;20215;-68
2021/12/01 11:34:01;;;;;;;7.53;6.70;;;;;;;14.13;37.63;99176.84;5072815;28;20261;-67
2021/12/01 11:36:30;;;;;;;2.53;1.90;;;;;;;13.84;37.87;99167.78;5072068;28;20226;-68
2021/12/01 11:38:59;;;;;;;2.10;1.80;;;;;;;13.54;38.59;99168.75;5071965;28;20233;-67
2021/12/01 11:41:28;;;;;;;4.43;3.60;;;;;;;13.63;38.13;99162.91;5087105;28;20198;-68
2021/12/01 11:43:55;;;;;;;6.40;5.80;;;;;;;13.59;38.94;99153.72;5092322;28;20192;-67